EPRZ/RZE METAR and TAF weather

Enter ICAO airport designator
Station Type Date Time Source
EPRZ METAR 2018/07/21 04:00 UTC NOAA

EPRZ 210400Z 24004KT CAVOK 16/15 Q1012


Station Type Date Time Source
EPRZ Decoded METAR 2018/07/21 04:00 UTC NOAA

Rzeszow-Jasionka, Poland (EPRZ) 50-06N 022-03E 202M
Jul 21, 2018 - 12:00 AM EDT / 2018.07.21 0400 UTC
Wind: from the WSW (240 degrees) at 5 MPH (4 KT):0
Visibility: greater than 7 mile(s):0
Temperature: 60 F (16 C)
Dew Point: 59 F (15 C)
Relative Humidity: 93%
Pressure (altimeter): 29.88 in. Hg (1012 hPa)
ob: EPRZ 210400Z 24004KT CAVOK 16/15 Q1012
cycle: 4

Station Type Date Time Source
EPRZ TAF 2018/07/20 18:36 UTC NOAA

TAF EPRZ 201730Z 2018/2118 28008KT 9999 SCT040 PROB30
TEMPO 2018/2020 BKN035CB PROB30
TEMPO 2110/2118 BKN030CB


Example: see airport list